MSC Bettina — HPFG — position and weather

sailwx.info

Track history (hours):
 
Tides and Currents Weather Stations Pressure Air Temp Water Temp Dewpoint Dewpoint Depression Visibility Wind Speed Wind Dir Waves Ship Positions

MSC Bettina

Last reported at 2015-Jul-02 03:32 UTC. Time now 2015-Jul-02 03:36 UTC.
Position N 01°16' E 103°46'.

Length 366 m; draft 15.6 m.

Type: Ship (hazmat cat A). MMSI: 352361000.

Date/timePositionNaut miles runAvg speedWind from/ knotsBaromVisibWave heightAir tempDewpointWater temp
2015-Jul-02 03:32N 01°16' E 103°46'0 0.0
2015-Jul-02 02:32N 01°16' E 103°46'0 0.0
2015-Jul-02 01:28N 01°16' E 103°46'0 0.0
2015-Jul-02 00:28N 01°16' E 103°46'0 0.0
2015-Jul-01 23:31N 01°16' E 103°46'0 0.0
2015-Jul-01 22:34N 01°16' E 103°46'0 0.0
2015-Jul-01 21:33N 01°16' E 103°46'0 0.0
2015-Jul-01 20:33N 01°16' E 103°46'0 0.0
2015-Jul-01 19:33N 01°16' E 103°46'0 0.0
2015-Jul-01 18:33N 01°16' E 103°46'0 0.0
2015-Jul-01 17:33N 01°16' E 103°46'0 0.0
2015-Jul-01 16:33N 01°16' E 103°46'0 0.0
2015-Jul-01 15:33N 01°16' E 103°46'0 0.0
2015-Jul-01 14:33N 01°16' E 103°46'0 0.0
2015-Jul-01 13:33N 01°16' E 103°46'0 0.0
2015-Jul-01 12:34N 01°16' E 103°46'0 0.0
2015-Jul-01 11:34N 01°16' E 103°46'0 0.0
2015-Jul-01 10:33N 01°16' E 103°46'0 0.0
2015-Jul-01 09:33N 01°16' E 103°46'0 0.1
2015-Jul-01 08:33N 01°16' E 103°46'0 0.1
2015-Jul-01 07:33N 01°16' E 103°46'0 0.0
2015-Jul-01 06:33N 01°16' E 103°46'0 0.0
2015-Jul-01 05:34N 01°16' E 103°46'0 0.0
2015-Jul-01 04:33N 01°16' E 103°46'0 0.0
2015-Jul-01 03:34N 01°16' E 103°46'0 0.0
2015-Jul-01 02:33N 01°16' E 103°46'0 0.0
2015-Jul-01 01:33N 01°16' E 103°46'1 0.5
2015-Jul-01 00:33N 01°16' E 103°46'7 6.9
2015-Jun-30 23:33N 01°13' E 103°52'9 9.3
2015-Jun-30 22:33N 01°16' E 104°01'  
2015-Jun-27 23:24N 21°45' E 114°28'3217.5
2015-Jun-27 21:33N 22°17' E 114°33'23 1.5
2015-Jun-27 06:20N 22°34' E 114°17'1810.2
2015-Jun-27 04:33N 22°22' E 114°32'20717.0
2015-Jun-26 16:20N 23°38' E 118°01'1619.8
2015-Jun-26 15:33N 23°50' E 118°12'1919.2
2015-Jun-26 14:33N 24°08' E 118°19'1514.5
2015-Jun-26 13:32N 24°20' E 118°10'10 7.5
2015-Jun-26 12:11N 24°26' E 118°02'0 0.0
2015-Jun-26 09:05N 24°26' E 118°02'0 0.0
2015-Jun-26 08:04N 24°26' E 118°02'0 0.0
2015-Jun-26 07:32N 24°26' E 118°02'0 0.0
2015-Jun-26 03:32N 24°26' E 118°02'0 0.0
2015-Jun-26 02:32N 24°26' E 118°02'0 0.2
2015-Jun-26 01:33N 24°26' E 118°02'10 9.7
2015-Jun-26 00:33N 24°20' E 118°10'1211.9
2015-Jun-25 23:31N 24°13' E 118°21'1515.6
2015-Jun-25 22:33N 24°16' E 118°37'36417.3
2015-Jun-25 01:33N 29°10' E 122°36'2220.3
2015-Jun-25 00:29N 29°32' E 122°35'1617.2
2015-Jun-24 23:33N 29°43' E 122°22'1313.4
2015-Jun-24 22:33N 29°52' E 122°11'8 7.6
2015-Jun-24 21:33N 29°53' E 122°03'0 0.1
2015-Jun-24 20:30N 29°53' E 122°03'0 0.0
2015-Jun-24 19:20N 29°53' E 122°03'0 0.0
2015-Jun-24 18:18N 29°53' E 122°03'0 0.0
2015-Jun-24 17:30N 29°53' E 122°03'0 0.0
2015-Jun-24 16:29N 29°53' E 122°03'0 0.0
2015-Jun-24 15:05N 29°53' E 122°03'0 0.0
2015-Jun-24 14:29N 29°53' E 122°03'0 0.0
2015-Jun-24 13:23N 29°53' E 122°03'0 0.0
2015-Jun-24 11:29N 29°53' E 122°03'0 0.0
2015-Jun-24 09:29N 29°53' E 122°03'0 0.0
2015-Jun-24 08:23N 29°53' E 122°03'0 0.1
2015-Jun-24 07:29N 29°53' E 122°03'0 0.1
2015-Jun-24 06:29N 29°53' E 122°03'0 0.0
2015-Jun-24 05:29N 29°53' E 122°03'0 0.0
2015-Jun-24 04:23N 29°53' E 122°03'0 0.0
2015-Jun-24 03:29N 29°53' E 122°03'0 0.0
2015-Jun-24 02:29N 29°53' E 122°03'0 0.0
2015-Jun-24 01:29N 29°53' E 122°03'0 0.0
2015-Jun-24 00:29N 29°53' E 122°03'0 0.0
2015-Jun-23 23:29N 29°53' E 122°03'0 0.0
2015-Jun-23 22:23N 29°53' E 122°03'0 0.0
2015-Jun-23 21:29N 29°53' E 122°03'0 0.0
2015-Jun-23 20:29N 29°53' E 122°03'0 0.0
2015-Jun-23 19:29N 29°53' E 122°03'0 0.0
2015-Jun-23 19:05N 29°53' E 122°03'28 1.1
2015-Jun-22 18:14N 29°37' E 122°28'0 0.1
2015-Jun-22 17:20N 29°37' E 122°28'0 0.1
2015-Jun-22 16:32N 29°37' E 122°28'0 0.0
2015-Jun-22 12:26N 29°36' E 122°28'0 0.0
2015-Jun-22 06:09N 29°37' E 122°28'2 3.0
2015-Jun-22 05:33N 29°38' E 122°29'  
Track history (hours):
 
Tides and Currents Weather Stations Pressure Air Temp Water Temp Dewpoint Dewpoint Depression Visibility Wind Speed Wind Dir Waves Ship Positions

MSC Bettina

Last reported at 2015-Jul-02 03:32 UTC. Time now 2015-Jul-02 03:36 UTC.
Position N 01°16' E 103°46'.

Length 366 m; draft 15.6 m.

Type: Ship (hazmat cat A). MMSI: 352361000.

Date/timePositionNaut miles runAvg speedWind from/ knotsBaromVisibWave heightAir tempDewpointWater temp
2015-Jul-02 03:32N 01°16' E 103°46'0 0.0
2015-Jul-02 02:32N 01°16' E 103°46'0 0.0
2015-Jul-02 01:28N 01°16' E 103°46'0 0.0
2015-Jul-02 00:28N 01°16' E 103°46'0 0.0
2015-Jul-01 23:31N 01°16' E 103°46'0 0.0
2015-Jul-01 22:34N 01°16' E 103°46'0 0.0
2015-Jul-01 21:33N 01°16' E 103°46'0 0.0
2015-Jul-01 20:33N 01°16' E 103°46'0 0.0
2015-Jul-01 19:33N 01°16' E 103°46'0 0.0
2015-Jul-01 18:33N 01°16' E 103°46'0 0.0
2015-Jul-01 17:33N 01°16' E 103°46'0 0.0
2015-Jul-01 16:33N 01°16' E 103°46'0 0.0
2015-Jul-01 15:33N 01°16' E 103°46'0 0.0
2015-Jul-01 14:33N 01°16' E 103°46'0 0.0
2015-Jul-01 13:33N 01°16' E 103°46'0 0.0
2015-Jul-01 12:34N 01°16' E 103°46'0 0.0
2015-Jul-01 11:34N 01°16' E 103°46'0 0.0
2015-Jul-01 10:33N 01°16' E 103°46'0 0.0
2015-Jul-01 09:33N 01°16' E 103°46'0 0.1
2015-Jul-01 08:33N 01°16' E 103°46'0 0.1
2015-Jul-01 07:33N 01°16' E 103°46'0 0.0
2015-Jul-01 06:33N 01°16' E 103°46'0 0.0
2015-Jul-01 05:34N 01°16' E 103°46'0 0.0
2015-Jul-01 04:33N 01°16' E 103°46'0 0.0
2015-Jul-01 03:34N 01°16' E 103°46'0 0.0
2015-Jul-01 02:33N 01°16' E 103°46'0 0.0
2015-Jul-01 01:33N 01°16' E 103°46'1 0.5
2015-Jul-01 00:33N 01°16' E 103°46'7 6.9
2015-Jun-30 23:33N 01°13' E 103°52'9 9.3
2015-Jun-30 22:33N 01°16' E 104°01'  
2015-Jun-27 23:24N 21°45' E 114°28'3217.5
2015-Jun-27 21:33N 22°17' E 114°33'23 1.5
2015-Jun-27 06:20N 22°34' E 114°17'1810.2
2015-Jun-27 04:33N 22°22' E 114°32'20717.0
2015-Jun-26 16:20N 23°38' E 118°01'1619.8
2015-Jun-26 15:33N 23°50' E 118°12'1919.2
2015-Jun-26 14:33N 24°08' E 118°19'1514.5
2015-Jun-26 13:32N 24°20' E 118°10'10 7.5
2015-Jun-26 12:11N 24°26' E 118°02'0 0.0
2015-Jun-26 09:05N 24°26' E 118°02'0 0.0
2015-Jun-26 08:04N 24°26' E 118°02'0 0.0
2015-Jun-26 07:32N 24°26' E 118°02'0 0.0
2015-Jun-26 03:32N 24°26' E 118°02'0 0.0
2015-Jun-26 02:32N 24°26' E 118°02'0 0.2
2015-Jun-26 01:33N 24°26' E 118°02'10 9.7
2015-Jun-26 00:33N 24°20' E 118°10'1211.9
2015-Jun-25 23:31N 24°13' E 118°21'1515.6
2015-Jun-25 22:33N 24°16' E 118°37'36417.3
2015-Jun-25 01:33N 29°10' E 122°36'2220.3
2015-Jun-25 00:29N 29°32' E 122°35'1617.2
2015-Jun-24 23:33N 29°43' E 122°22'1313.4
2015-Jun-24 22:33N 29°52' E 122°11'8 7.6
2015-Jun-24 21:33N 29°53' E 122°03'0 0.1
2015-Jun-24 20:30N 29°53' E 122°03'0 0.0
2015-Jun-24 19:20N 29°53' E 122°03'0 0.0
2015-Jun-24 18:18N 29°53' E 122°03'0 0.0
2015-Jun-24 17:30N 29°53' E 122°03'0 0.0
2015-Jun-24 16:29N 29°53' E 122°03'0 0.0
2015-Jun-24 15:05N 29°53' E 122°03'0 0.0
2015-Jun-24 14:29N 29°53' E 122°03'0 0.0
2015-Jun-24 13:23N 29°53' E 122°03'0 0.0
2015-Jun-24 11:29N 29°53' E 122°03'0 0.0
2015-Jun-24 09:29N 29°53' E 122°03'0 0.0
2015-Jun-24 08:23N 29°53' E 122°03'0 0.1
2015-Jun-24 07:29N 29°53' E 122°03'0 0.1
2015-Jun-24 06:29N 29°53' E 122°03'0 0.0
2015-Jun-24 05:29N 29°53' E 122°03'0 0.0
2015-Jun-24 04:23N 29°53' E 122°03'0 0.0
2015-Jun-24 03:29N 29°53' E 122°03'0 0.0
2015-Jun-24 02:29N 29°53' E 122°03'0 0.0
2015-Jun-24 01:29N 29°53' E 122°03'0 0.0
2015-Jun-24 00:29N 29°53' E 122°03'0 0.0
2015-Jun-23 23:29N 29°53' E 122°03'0 0.0
2015-Jun-23 22:23N 29°53' E 122°03'0 0.0
2015-Jun-23 21:29N 29°53' E 122°03'0 0.0
2015-Jun-23 20:29N 29°53' E 122°03'0 0.0
2015-Jun-23 19:29N 29°53' E 122°03'0 0.0
2015-Jun-23 19:05N 29°53' E 122°03'28 1.1
2015-Jun-22 18:14N 29°37' E 122°28'0 0.1
2015-Jun-22 17:20N 29°37' E 122°28'0 0.1
2015-Jun-22 16:32N 29°37' E 122°28'0 0.0
2015-Jun-22 12:26N 29°36' E 122°28'0 0.0
2015-Jun-22 06:09N 29°37' E 122°28'2 3.0
2015-Jun-22 05:33N 29°38' E 122°29'  

Dump ship's entire track history